Time;durP1;ratioP1;P1;durP2;ratioP2;P2;SDS_P1;SDS_P2;PMS_P1;PMS_P2;Temp;Humidity;BMP_temperature;BMP_pressure;BME280_temperature;BME280_humidity;BME280_pressure;Samples;Min_cycle;Max_cycle;Signal;HPM_P1;HPM_P2
2022/12/01 00:00:41;;;;;;;10.43;4.10;;;;;;;;;;4980128;28;20157;-63
2022/12/01 00:03:16;;;;;;;7.82;4.00;;;;;;;;;;4983172;28;20495;-65
2022/12/01 00:05:42;;;;;;;7.22;3.90;;;;;;;;;;4982468;28;20058;-69
2022/12/01 00:08:08;;;;;;;11.00;4.15;;;;;;;;;;4984063;28;20144;-67
2022/12/01 00:10:34;;;;;;;8.18;3.92;;;;;;;;;;4977477;28;20045;-67
2022/12/01 00:13:03;;;;;;;6.13;3.83;;;;;;;;;;4983124;28;20088;-65
2022/12/01 00:15:34;;;;;;;10.77;4.28;;;;;;;;;;4967037;28;20050;-64
2022/12/01 00:18:01;;;;;;;8.52;4.07;;;;;;;;;;4984247;28;20043;-65
2022/12/01 00:20:28;;;;;;;8.50;3.95;;;;;;;;;;4979845;28;20238;-70
2022/12/01 00:22:54;;;;;;;6.47;3.75;;;;;;;;;;4980760;28;20050;-64
2022/12/01 00:25:21;;;;;;;6.20;3.60;;;;;;;;;;4981955;28;21010;-67
2022/12/01 00:27:48;;;;;;;8.23;3.50;;;;;;;;;;4981297;28;20046;-67
2022/12/01 00:30:16;;;;;;;7.28;3.97;;;;;;;;;;4980486;28;20165;-65
2022/12/01 00:32:42;;;;;;;7.93;3.50;;;;;;;;;;4981425;28;21598;-65
2022/12/01 00:35:08;;;;;;;6.57;3.38;;;;;;;;;;4982035;28;20057;-65
2022/12/01 00:37:34;;;;;;;9.45;4.15;;;;;;;;;;4979303;28;20420;-66
2022/12/01 00:40:02;;;;;;;10.52;3.95;;;;;;;;;;4976807;28;20072;-66
2022/12/01 00:42:28;;;;;;;9.23;3.97;;;;;;;;;;4982575;28;20050;-65
2022/12/01 00:44:54;;;;;;;6.93;3.63;;;;;;;;;;4982515;28;21055;-64
2022/12/01 00:47:20;;;;;;;10.30;4.53;;;;;;;;;;4981565;28;20497;-64
2022/12/01 00:49:46;;;;;;;12.00;4.45;;;;;;;;;;4977977;28;20377;-64
2022/12/01 00:52:14;;;;;;;11.70;5.10;;;;;;;;;;4977740;28;20104;-65
2022/12/01 00:54:40;;;;;;;16.00;5.93;;;;;;;;;;4978349;28;20083;-64
2022/12/01 00:57:07;;;;;;;16.27;7.28;;;;;;;;;;4978666;28;20049;-66
2022/12/01 00:59:34;;;;;;;17.48;6.07;;;;;;;;;;4984910;28;20764;-64
2022/12/01 01:02:01;;;;;;;16.27;6.10;;;;;;;;;;4981409;28;20508;-64
2022/12/01 01:04:32;;;;;;;14.75;5.43;;;;;;;;;;4984790;28;20507;-65
2022/12/01 01:06:58;;;;;;;13.90;6.47;;;;;;;;;;4982875;28;20084;-68
2022/12/01 01:09:27;;;;;;;13.02;4.80;;;;;;;;;;4984982;28;20057;-64
2022/12/01 01:11:53;;;;;;;9.70;4.85;;;;;;;;;;4981159;28;20081;-64
2022/12/01 01:14:20;;;;;;;9.98;4.55;;;;;;;;;;4985899;28;20058;-70
2022/12/01 01:16:46;;;;;;;10.88;4.30;;;;;;;;;;4981025;28;20045;-70
2022/12/01 01:19:12;;;;;;;9.43;4.30;;;;;;;;;;4985027;28;20116;-64
2022/12/01 01:21:38;;;;;;;12.20;4.13;;;;;;;;;;4979320;28;20635;-67
2022/12/01 01:24:05;;;;;;;7.80;4.22;;;;;;;;;;4984267;28;20045;-64
2022/12/01 01:26:31;;;;;;;8.77;3.63;;;;;;;;;;4982617;28;20058;-64
2022/12/01 01:29:02;;;;;;;7.25;3.90;;;;;;;;;;4984873;28;20456;-63
2022/12/01 01:31:30;;;;;;;5.35;3.30;;;;;;;;;;4974558;28;20080;-63
2022/12/01 01:33:56;;;;;;;8.68;3.40;;;;;;;;;;4986293;28;20046;-65
2022/12/01 01:36:23;;;;;;;8.52;3.30;;;;;;;;;;4987198;28;20151;-64
2022/12/01 01:38:53;;;;;;;6.82;3.17;;;;;;;;;;4986895;28;20759;-63
2022/12/01 01:41:21;;;;;;;7.68;3.33;;;;;;;;;;4977434;28;20594;-65
2022/12/01 01:43:47;;;;;;;6.50;3.00;;;;;;;;;;4985629;28;20050;-64
2022/12/01 01:46:26;;;;;;;6.63;2.78;;;;;;;;;;4984053;28;20120;-64
2022/12/01 01:49:15;;;;;;;7.38;2.90;;;;;;;;;;4981600;28;20045;-67
2022/12/01 01:51:45;;;;;;;6.00;3.15;;;;;;;;;;4978171;28;20192;-65
2022/12/01 01:54:16;;;;;;;9.98;3.13;;;;;;;;;;4982730;28;20057;-65
2022/12/01 01:56:43;;;;;;;4.03;2.72;;;;;;;;;;4980038;28;20050;-64
2022/12/01 01:59:13;;;;;;;7.20;2.83;;;;;;;;;;4983022;28;20058;-64
2022/12/01 02:01:39;;;;;;;5.15;3.15;;;;;;;;;;4978809;28;23143;-63
2022/12/01 02:04:06;;;;;;;4.00;2.45;;;;;;;;;;4982871;28;20068;-64
2022/12/01 02:06:32;;;;;;;4.15;2.40;;;;;;;;;;4983849;28;20049;-64
2022/12/01 02:08:58;;;;;;;6.00;2.30;;;;;;;;;;4983259;28;20050;-62
2022/12/01 02:11:47;;;;;;;6.35;2.80;;;;;;;;;;4977940;28;20053;-68
2022/12/01 02:14:39;;;;;;;5.53;2.80;;;;;;;;;;4963027;28;20084;-64
2022/12/01 02:17:27;;;;;;;7.78;2.60;;;;;;;;;;4981579;28;20077;-67
2022/12/01 02:20:12;;;;;;;4.72;2.92;;;;;;;;;;4961003;28;20054;-64
2022/12/01 02:22:44;;;;;;;4.28;2.10;;;;;;;;;;4982381;28;20049;-62
2022/12/01 02:25:25;;;;;;;5.18;2.53;;;;;;;;;;4982815;28;20138;-63
2022/12/01 02:28:01;;;;;;;3.75;2.50;;;;;;;;;;4980944;28;20169;-64
2022/12/01 02:30:48;;;;;;;3.95;2.70;;;;;;;;;;4978528;28;20061;-65
2022/12/01 02:33:14;;;;;;;5.60;2.60;;;;;;;;;;4981616;28;20331;-63
2022/12/01 02:36:14;;;;;;;5.40;2.17;;;;;;;;;;4964204;28;20404;-61
2022/12/01 02:38:44;;;;;;;2.60;2.08;;;;;;;;;;4979632;28;20328;-61
2022/12/01 02:41:14;;;;;;;3.45;2.28;;;;;;;;;;4977695;28;20049;-63
2022/12/01 02:43:49;;;;;;;5.20;2.47;;;;;;;;;;4982624;28;20668;-62
2022/12/01 02:46:45;;;;;;;6.35;2.50;;;;;;;;;;4977333;28;20057;-67
2022/12/01 02:49:23;;;;;;;4.75;2.28;;;;;;;;;;4983791;28;20310;-63
2022/12/01 02:51:51;;;;;;;3.90;2.28;;;;;;;;;;4984330;28;20053;-62
2022/12/01 02:54:18;;;;;;;6.53;2.25;;;;;;;;;;4984569;28;20429;-65
2022/12/01 02:56:44;;;;;;;4.40;2.25;;;;;;;;;;4977330;28;20680;-63
2022/12/01 02:59:12;;;;;;;4.13;2.30;;;;;;;;;;4979315;28;20152;-64
2022/12/01 03:01:51;;;;;;;4.10;2.45;;;;;;;;;;4979405;28;20061;-64
2022/12/01 03:04:43;;;;;;;3.85;2.00;;;;;;;;;;4983808;28;20192;-65
2022/12/01 03:07:12;;;;;;;6.35;2.40;;;;;;;;;;4979988;28;20234;-64
2022/12/01 03:09:53;;;;;;;4.22;2.00;;;;;;;;;;4976644;28;20351;-65
2022/12/01 03:12:27;;;;;;;4.75;2.08;;;;;;;;;;4978915;28;20681;-64
2022/12/01 03:15:17;;;;;;;3.97;2.55;;;;;;;;;;4979127;28;20092;-64
2022/12/01 03:17:54;;;;;;;4.20;2.13;;;;;;;;;;4979785;28;20112;-64
2022/12/01 03:20:27;;;;;;;4.20;2.42;;;;;;;;;;4976101;28;20080;-61
2022/12/01 03:23:00;;;;;;;6.32;2.28;;;;;;;;;;4982052;28;20148;-63
2022/12/01 03:25:28;;;;;;;4.00;2.30;;;;;;;;;;4983001;28;20064;-65
2022/12/01 03:27:57;;;;;;;9.00;2.67;;;;;;;;;;4982042;28;20472;-64
2022/12/01 03:30:24;;;;;;;9.75;2.55;;;;;;;;;;4976131;28;20050;-63
2022/12/01 03:33:07;;;;;;;4.93;2.10;;;;;;;;;;4983720;28;20578;-64
2022/12/01 03:35:52;;;;;;;6.88;2.17;;;;;;;;;;4982915;28;20049;-64
2022/12/01 03:38:28;;;;;;;4.70;2.40;;;;;;;;;;4983321;28;20492;-63
2022/12/01 03:41:00;;;;;;;5.43;2.38;;;;;;;;;;4981193;28;20064;-64
2022/12/01 03:43:32;;;;;;;5.18;2.50;;;;;;;;;;4984662;28;20050;-64
2022/12/01 03:46:24;;;;;;;4.88;2.30;;;;;;;;;;4982951;28;20042;-67
2022/12/01 03:48:53;;;;;;;3.97;2.47;;;;;;;;;;4983284;28;20053;-63
2022/12/01 03:51:38;;;;;;;3.85;2.17;;;;;;;;;;4976281;28;21020;-64
2022/12/01 03:54:16;;;;;;;5.13;2.22;;;;;;;;;;4978804;28;20046;-67
2022/12/01 03:56:52;;;;;;;4.05;2.13;;;;;;;;;;4982665;28;20792;-63
2022/12/01 03:59:21;;;;;;;4.13;2.53;;;;;;;;;;4977750;28;20057;-62
2022/12/01 04:01:47;;;;;;;5.03;3.00;;;;;;;;;;4975913;28;20054;-63
2022/12/01 04:04:13;;;;;;;6.15;2.90;;;;;;;;;;4960069;28;20199;-62
2022/12/01 04:06:43;;;;;;;4.68;2.53;;;;;;;;;;4979877;28;20145;-63
2022/12/01 04:09:09;;;;;;;3.55;2.40;;;;;;;;;;4975651;28;20077;-62
2022/12/01 04:14:20;;;;;;;5.28;2.25;;;;;;;;;;4981744;28;20069;-63
2022/12/01 04:16:45;;;;;;;5.22;2.53;;;;;;;;;;4977157;28;20054;-63
2022/12/01 04:19:11;;;;;;;5.00;2.40;;;;;;;;;;4979242;28;20053;-64
2022/12/01 04:21:37;;;;;;;4.72;2.25;;;;;;;;;;4976461;28;20084;-62
2022/12/01 04:24:04;;;;;;;3.72;2.20;;;;;;;;;;4981219;28;20437;-68
2022/12/01 04:26:32;;;;;;;5.32;2.47;;;;;;;;;;4982470;28;20054;-63
2022/12/01 04:29:00;;;;;;;6.05;2.50;;;;;;;;;;4962027;28;20060;-64
2022/12/01 04:31:26;;;;;;;5.75;2.33;;;;;;;;;;4980466;28;20409;-65
2022/12/01 04:33:54;;;;;;;5.70;2.10;;;;;;;;;;4988393;28;20060;-65
2022/12/01 04:36:21;;;;;;;5.60;2.10;;;;;;;;;;4983657;28;20050;-62
2022/12/01 04:38:47;;;;;;;4.43;1.80;;;;;;;;;;4981804;28;20753;-62
2022/12/01 04:41:13;;;;;;;3.28;2.20;;;;;;;;;;4978437;28;20050;-62
2022/12/01 04:43:40;;;;;;;6.07;2.20;;;;;;;;;;4985301;28;20136;-64
2022/12/01 04:46:06;;;;;;;3.78;2.10;;;;;;;;;;4982505;28;20473;-63
2022/12/01 04:48:34;;;;;;;6.38;2.08;;;;;;;;;;4984842;28;20046;-61
2022/12/01 04:51:01;;;;;;;4.22;2.15;;;;;;;;;;4978477;28;20046;-65
2022/12/01 04:53:27;;;;;;;3.92;2.13;;;;;;;;;;4983173;28;20057;-61
2022/12/01 04:55:53;;;;;;;6.93;2.30;;;;;;;;;;4983580;28;20053;-63
2022/12/01 04:58:19;;;;;;;2.67;1.83;;;;;;;;;;4984737;28;20054;-64
2022/12/01 05:00:45;;;;;;;2.67;1.73;;;;;;;;;;4976167;28;20614;-62
2022/12/01 05:03:11;;;;;;;7.57;2.30;;;;;;;;;;4983875;28;20056;-64
2022/12/01 05:05:37;;;;;;;5.25;1.98;;;;;;;;;;4984743;28;20058;-63
2022/12/01 05:08:03;;;;;;;4.78;1.70;;;;;;;;;;4983144;28;20054;-65
2022/12/01 05:10:29;;;;;;;3.65;2.30;;;;;;;;;;4962551;28;20057;-63
2022/12/01 05:12:57;;;;;;;4.00;2.10;;;;;;;;;;4986010;28;20139;-63
2022/12/01 05:15:23;;;;;;;7.85;2.10;;;;;;;;;;4986862;28;20076;-64
2022/12/01 05:17:49;;;;;;;4.07;1.90;;;;;;;;;;4987614;28;20151;-61
2022/12/01 05:23:05;;;;;;;3.65;1.98;;;;;;;;;;4983953;28;20389;-65
2022/12/01 05:25:32;;;;;;;4.18;2.08;;;;;;;;;;4984839;28;20659;-64
2022/12/01 05:27:58;;;;;;;5.45;2.00;;;;;;;;;;4980317;28;20503;-62
2022/12/01 05:30:24;;;;;;;2.83;1.88;;;;;;;;;;4981005;28;21365;-65
2022/12/01 05:32:50;;;;;;;4.35;2.35;;;;;;;;;;4981061;28;20053;-65
2022/12/01 05:35:16;;;;;;;3.72;2.13;;;;;;;;;;4976136;28;20689;-64
2022/12/01 05:37:42;;;;;;;4.93;2.15;;;;;;;;;;4979145;28;20050;-63
2022/12/01 05:40:08;;;;;;;3.78;1.95;;;;;;;;;;4980297;28;20057;-62
2022/12/01 05:42:34;;;;;;;8.07;2.10;;;;;;;;;;4984677;28;20045;-64
2022/12/01 05:45:00;;;;;;;2.92;2.00;;;;;;;;;;4985282;28;20046;-64
2022/12/01 05:47:26;;;;;;;3.75;1.98;;;;;;;;;;4983264;28;20046;-64
2022/12/01 05:49:52;;;;;;;5.10;1.80;;;;;;;;;;4980637;28;21232;-67
2022/12/01 05:52:18;;;;;;;6.70;3.42;;;;;;;;;;4979366;28;20037;-64
2022/12/01 05:54:43;;;;;;;7.22;2.50;;;;;;;;;;4979075;28;20058;-63
2022/12/01 05:57:10;;;;;;;5.13;2.08;;;;;;;;;;4979851;28;20049;-65
2022/12/01 05:59:36;;;;;;;9.73;2.17;;;;;;;;;;4984286;28;20060;-62
2022/12/01 06:02:02;;;;;;;5.70;2.13;;;;;;;;;;4976631;28;20076;-69
2022/12/01 06:04:28;;;;;;;3.38;1.90;;;;;;;;;;4983438;28;20054;-65
2022/12/01 06:06:54;;;;;;;4.18;2.35;;;;;;;;;;4982263;28;20490;-62
2022/12/01 06:09:20;;;;;;;5.57;2.08;;;;;;;;;;4975457;28;20050;-62
2022/12/01 06:11:45;;;;;;;5.53;2.63;;;;;;;;;;4979050;28;20057;-64
2022/12/01 06:14:11;;;;;;;7.50;2.00;;;;;;;;;;4984059;28;20603;-63
2022/12/01 06:16:37;;;;;;;6.93;2.40;;;;;;;;;;4977065;28;20082;-64
2022/12/01 06:19:03;;;;;;;5.97;2.13;;;;;;;;;;4984107;28;20060;-63
2022/12/01 06:21:29;;;;;;;5.47;2.00;;;;;;;;;;4974794;28;20050;-65
2022/12/01 06:23:55;;;;;;;5.20;2.40;;;;;;;;;;4979428;28;20103;-72
2022/12/01 06:26:21;;;;;;;4.38;2.03;;;;;;;;;;4982051;28;20050;-63
2022/12/01 06:28:47;;;;;;;6.38;2.30;;;;;;;;;;4979016;28;20057;-64
2022/12/01 06:31:14;;;;;;;10.00;2.25;;;;;;;;;;4973757;28;20058;-62
2022/12/01 06:33:40;;;;;;;5.88;2.20;;;;;;;;;;4969118;28;20137;-63
2022/12/01 06:36:06;;;;;;;6.80;2.20;;;;;;;;;;4985226;28;20476;-63
2022/12/01 06:38:34;;;;;;;6.82;2.33;;;;;;;;;;4977645;28;20053;-62
2022/12/01 06:41:00;;;;;;;5.03;2.30;;;;;;;;;;4982147;28;20052;-64
2022/12/01 06:43:27;;;;;;;4.47;2.30;;;;;;;;;;4986962;28;20042;-65
2022/12/01 06:45:53;;;;;;;5.53;2.15;;;;;;;;;;4983071;28;20054;-67
2022/12/01 06:48:19;;;;;;;5.65;2.38;;;;;;;;;;4983681;28;20080;-63
2022/12/01 06:50:45;;;;;;;8.77;2.80;;;;;;;;;;4979054;28;20132;-65
2022/12/01 06:53:11;;;;;;;3.95;2.00;;;;;;;;;;4980635;28;20061;-65
2022/12/01 06:55:37;;;;;;;8.82;2.63;;;;;;;;;;4983093;28;20058;-64
2022/12/01 06:58:04;;;;;;;5.53;2.08;;;;;;;;;;4982830;28;20696;-65
2022/12/01 07:00:30;;;;;;;12.00;2.42;;;;;;;;;;4977961;28;20064;-68
2022/12/01 07:02:56;;;;;;;8.30;2.58;;;;;;;;;;4978051;28;20053;-68
2022/12/01 07:05:22;;;;;;;8.43;2.22;;;;;;;;;;4982741;28;20050;-64
2022/12/01 07:07:48;;;;;;;13.27;2.53;;;;;;;;;;4983792;28;20064;-62
2022/12/01 07:10:14;;;;;;;4.85;2.17;;;;;;;;;;4980165;28;21065;-65
2022/12/01 07:12:40;;;;;;;6.55;2.10;;;;;;;;;;4982919;28;20504;-66
2022/12/01 07:15:07;;;;;;;5.90;1.83;;;;;;;;;;4980842;28;20077;-64
2022/12/01 07:17:34;;;;;;;5.22;2.25;;;;;;;;;;4974794;28;20054;-64
2022/12/01 07:20:00;;;;;;;5.32;1.90;;;;;;;;;;4977270;28;20116;-67
2022/12/01 07:22:27;;;;;;;9.48;2.40;;;;;;;;;;4979946;28;20053;-64
2022/12/01 07:24:53;;;;;;;8.00;2.10;;;;;;;;;;4977788;28;20085;-64
2022/12/01 07:27:19;;;;;;;5.07;2.30;;;;;;;;;;4981672;28;20092;-64
2022/12/01 07:29:45;;;;;;;5.35;2.40;;;;;;;;;;4980363;28;20595;-68
2022/12/01 07:32:12;;;;;;;7.75;2.78;;;;;;;;;;4978834;28;20066;-66
2022/12/01 07:34:38;;;;;;;5.22;2.22;;;;;;;;;;4969352;28;20068;-68
2022/12/01 07:37:05;;;;;;;5.25;2.00;;;;;;;;;;4984831;28;20056;-67
2022/12/01 07:39:31;;;;;;;5.78;2.00;;;;;;;;;;4987787;28;20038;-66
2022/12/01 07:41:57;;;;;;;9.50;2.55;;;;;;;;;;4984574;28;20400;-68
2022/12/01 07:44:23;;;;;;;5.25;2.38;;;;;;;;;;4988063;28;20045;-67
2022/12/01 07:46:49;;;;;;;6.22;2.30;;;;;;;;;;4983005;28;20058;-64
2022/12/01 07:49:15;;;;;;;9.30;2.55;;;;;;;;;;4977475;28;20598;-69
2022/12/01 07:51:41;;;;;;;8.75;2.50;;;;;;;;;;4981489;28;20046;-67
2022/12/01 07:54:07;;;;;;;5.75;2.67;;;;;;;;;;4981202;28;20216;-70
2022/12/01 07:56:33;;;;;;;9.88;2.75;;;;;;;;;;4987535;28;20038;-67
2022/12/01 07:58:59;;;;;;;10.05;2.90;;;;;;;;;;4988863;28;20065;-67
2022/12/01 08:01:25;;;;;;;13.05;3.03;;;;;;;;;;4979741;28;20322;-68
2022/12/01 08:03:56;;;;;;;6.70;2.60;;;;;;;;;;4985895;28;20061;-64
2022/12/01 08:06:23;;;;;;;5.25;2.60;;;;;;;;;;4981444;28;20606;-72
2022/12/01 08:08:49;;;;;;;11.90;2.60;;;;;;;;;;4989664;28;20054;-72
2022/12/01 08:11:20;;;;;;;5.80;2.80;;;;;;;;;;4987885;28;20045;-70
2022/12/01 08:13:47;;;;;;;8.82;3.22;;;;;;;;;;4970773;28;20528;-69
2022/12/01 08:16:15;;;;;;;7.97;2.83;;;;;;;;;;4990055;28;20856;-68
2022/12/01 08:18:42;;;;;;;4.60;2.38;;;;;;;;;;4991175;28;20088;-68
2022/12/01 08:21:13;;;;;;;8.98;2.30;;;;;;;;;;4983541;28;21127;-68
2022/12/01 08:23:40;;;;;;;7.93;3.65;;;;;;;;;;4971292;28;20042;-66
2022/12/01 08:26:12;;;;;;;4.82;2.30;;;;;;;;;;4969818;28;20464;-70
2022/12/01 08:28:39;;;;;;;11.20;2.92;;;;;;;;;;4976580;28;20410;-68
2022/12/01 08:31:11;;;;;;;7.53;2.28;;;;;;;;;;4981622;28;20054;-68
2022/12/01 08:33:37;;;;;;;6.68;2.63;;;;;;;;;;4991666;28;20129;-71
2022/12/01 08:36:04;;;;;;;5.63;2.63;;;;;;;;;;4992560;28;20137;-68
2022/12/01 08:38:31;;;;;;;7.57;3.03;;;;;;;;;;4992302;28;20045;-68
2022/12/01 08:41:08;;;;;;;9.52;3.15;;;;;;;;;;4987606;28;20046;-71
2022/12/01 08:43:38;;;;;;;10.68;3.03;;;;;;;;;;4989315;28;20049;-67
2022/12/01 08:46:06;;;;;;;6.72;2.75;;;;;;;;;;4990568;28;20137;-69
2022/12/01 08:48:31;;;;;;;4.53;2.60;;;;;;;;;;4986159;28;20062;-70
2022/12/01 08:51:06;;;;;;;8.30;2.95;;;;;;;;;;4988215;28;20653;-69
2022/12/01 08:53:33;;;;;;;6.18;2.42;;;;;;;;;;4971028;28;20480;-68
2022/12/01 08:56:09;;;;;;;9.07;2.50;;;;;;;;;;4987283;28;20058;-68
2022/12/01 08:58:35;;;;;;;7.22;2.70;;;;;;;;;;4988992;28;20136;-68
2022/12/01 09:01:08;;;;;;;6.50;3.90;;;;;;;;;;4985367;28;20058;-67
2022/12/01 09:03:35;;;;;;;11.52;3.00;;;;;;;;;;4990795;28;20335;-68
2022/12/01 09:06:21;;;;;;;18.50;3.20;;;;;;;;;;4990642;28;20065;-67
2022/12/01 09:08:47;;;;;;;5.90;3.25;;;;;;;;;;4969747;28;20062;-68
2022/12/01 09:11:16;;;;;;;6.60;2.90;;;;;;;;;;4988725;28;20125;-71
2022/12/01 09:13:43;;;;;;;7.10;2.90;;;;;;;;;;4993578;28;20100;-73
2022/12/01 09:16:11;;;;;;;7.80;3.03;;;;;;;;;;4969143;28;20088;-69
2022/12/01 09:18:38;;;;;;;7.22;3.13;;;;;;;;;;4987905;28;20080;-73
2022/12/01 09:21:10;;;;;;;10.40;3.80;;;;;;;;;;4970178;28;20613;-72
2022/12/01 09:23:38;;;;;;;8.77;2.83;;;;;;;;;;4985642;28;20556;-74
2022/12/01 09:26:05;;;;;;;7.68;3.50;;;;;;;;;;4968604;28;20042;-67
2022/12/01 09:28:31;;;;;;;6.38;3.38;;;;;;;;;;4991681;28;20045;-73
2022/12/01 09:31:06;;;;;;;7.63;3.45;;;;;;;;;;4989952;28;20448;-72
2022/12/01 09:33:33;;;;;;;7.28;3.33;;;;;;;;;;4990262;28;20038;-72
2022/12/01 09:36:01;;;;;;;10.00;3.50;;;;;;;;;;4972389;28;20050;-70
2022/12/01 09:38:31;;;;;;;5.80;3.10;;;;;;;;;;4989657;28;20564;-70
2022/12/01 09:41:04;;;;;;;5.45;3.10;;;;;;;;;;4984829;28;20958;-69
2022/12/01 09:43:42;;;;;;;7.07;3.20;;;;;;;;;;4992458;28;20057;-72
2022/12/01 09:46:24;;;;;;;10.07;3.00;;;;;;;;;;5001220;28;20050;-71
2022/12/01 09:48:52;;;;;;;7.95;3.20;;;;;;;;;;4999970;28;20046;-73
2022/12/01 09:51:21;;;;;;;8.77;3.30;;;;;;;;;;5001906;28;20120;-72
2022/12/01 09:53:49;;;;;;;3.40;2.50;;;;;;;;;;4984227;28;20058;-71
2022/12/01 09:56:22;;;;;;;7.60;2.63;;;;;;;;;;4998488;28;20045;-72
2022/12/01 09:58:52;;;;;;;7.30;2.38;;;;;;;;;;4998163;28;20076;-72
2022/12/01 10:01:23;;;;;;;6.75;2.25;;;;;;;;;;5002020;28;20625;-71
2022/12/01 10:03:56;;;;;;;8.35;3.58;;;;;;;;;;5000554;28;20271;-74
2022/12/01 10:06:36;;;;;;;6.83;2.80;;;;;;;;;;4997673;28;20046;-73
2022/12/01 10:09:28;;;;;;;4.90;2.95;;;;;;;;;;4992298;28;20503;-73
2022/12/01 10:12:00;;;;;;;5.95;2.88;;;;;;;;;;5004923;28;20065;-72
2022/12/01 10:14:28;;;;;;;10.18;2.97;;;;;;;;;;5004599;28;20084;-65
2022/12/01 10:17:19;;;;;;;8.77;2.72;;;;;;;;;;5001408;28;20324;-69
2022/12/01 10:20:05;;;;;;;10.00;2.83;;;;;;;;;;4999528;28;20047;-68
2022/12/01 10:23:01;;;;;;;5.10;2.60;;;;;;;;;;5000204;28;20045;-67
2022/12/01 10:25:52;;;;;;;3.55;1.80;;;;;;;;;;4996580;28;20493;-65
2022/12/01 10:29:00;;;;;;;7.40;1.88;;;;;;;;;;4986611;28;20054;-68
2022/12/01 10:31:40;;;;;;;10.50;2.05;;;;;;;;;;5003213;28;20080;-68
2022/12/01 10:34:20;;;;;;;6.78;2.30;;;;;;;;;;4986587;28;20050;-70
2022/12/01 10:36:46;;;;;;;4.03;2.30;;;;;;;;;;4979863;28;20056;-71
2022/12/01 10:39:23;;;;;;;6.68;2.60;;;;;;;;;;5007374;28;20485;-65
2022/12/01 10:41:49;;;;;;;6.03;2.75;;;;;;;;;;4998280;28;20412;-70
2022/12/01 10:44:17;;;;;;;6.78;2.25;;;;;;;;;;5001693;28;20058;-68
2022/12/01 10:46:51;;;;;;;6.55;2.45;;;;;;;;;;5005554;28;20409;-69
2022/12/01 10:49:18;;;;;;;7.13;2.53;;;;;;;;;;5004281;28;20041;-68
2022/12/01 10:51:54;;;;;;;4.85;2.20;;;;;;;;;;5000702;28;20354;-70
2022/12/01 10:54:22;;;;;;;4.57;1.80;;;;;;;;;;5001942;28;20058;-74
2022/12/01 10:56:53;;;;;;;6.75;2.20;;;;;;;;;;5000942;28;20042;-67
2022/12/01 10:59:25;;;;;;;5.60;2.33;;;;;;;;;;4983439;28;20049;-67
2022/12/01 11:01:52;;;;;;;13.00;2.70;;;;;;;;;;4986422;28;20057;-69
2022/12/01 11:04:27;;;;;;;7.88;2.53;;;;;;;;;;4990911;28;20304;-68
2022/12/01 11:06:53;;;;;;;5.07;1.80;;;;;;;;;;4992254;28;20050;-69
2022/12/01 11:09:26;;;;;;;2.33;1.70;;;;;;;;;;4962974;28;20065;-68
2022/12/01 11:12:03;;;;;;;14.07;1.70;;;;;;;;;;4997563;28;20069;-68
2022/12/01 11:14:49;;;;;;;10.68;1.80;;;;;;;;;;4997727;28;20133;-68
2022/12/01 11:17:25;;;;;;;8.90;2.30;;;;;;;;;;4999760;28;20057;-68
2022/12/01 11:19:51;;;;;;;5.47;1.80;;;;;;;;;;5000815;28;20065;-67
2022/12/01 11:22:21;;;;;;;5.93;1.60;;;;;;;;;;4996481;28;20050;-67
2022/12/01 11:24:56;;;;;;;6.68;1.40;;;;;;;;;;4996572;28;20056;-70
2022/12/01 11:27:23;;;;;;;;;;;;;;;;;;4998288;28;20100;-69
2022/12/01 11:30:03;;;;;;;4.22;1.30;;;;;;;;;;4999665;28;19929;-67
2022/12/01 11:32:36;;;;;;;3.80;1.27;;;;;;;;;;4997621;28;20058;-69
2022/12/01 11:35:24;;;;;;;11.57;1.40;;;;;;;;;;5001096;28;20034;-69
2022/12/01 11:37:52;;;;;;;5.15;1.42;;;;;;;;;;4998954;28;20493;-69
2022/12/01 11:40:23;;;;;;;5.32;1.38;;;;;;;;;;4999522;28;20057;-69
2022/12/01 11:42:55;;;;;;;6.65;1.40;;;;;;;;;;4996747;28;20046;-72
2022/12/01 11:45:21;;;;;;;8.10;1.80;;;;;;;;;;5000452;28;20057;-69
2022/12/01 11:47:59;;;;;;;6.00;1.45;;;;;;;;;;4996762;28;20054;-70
2022/12/01 11:50:28;;;;;;;3.97;1.30;;;;;;;;;;4993768;28;20123;-69
2022/12/01 11:52:54;;;;;;;9.35;1.60;;;;;;;;;;4993039;28;20137;-72
2022/12/01 11:55:20;;;;;;;4.82;1.50;;;;;;;;;;4991886;28;20155;-70
2022/12/01 11:57:49;;;;;;;6.25;1.63;;;;;;;;;;4991582;28;20366;-72
2022/12/01 12:00:24;;;;;;;9.02;1.95;;;;;;;;;;4997178;28;20424;-69
2022/12/01 12:03:11;;;;;;;4.28;1.40;;;;;;;;;;4991736;28;20058;-70
2022/12/01 12:06:05;;;;;;;5.72;1.77;;;;;;;;;;4996924;28;20085;-73
2022/12/01 12:09:00;;;;;;;2.13;1.30;;;;;;;;;;4996527;28;20048;-69
2022/12/01 12:11:36;;;;;;;4.95;1.45;;;;;;;;;;4977008;28;20062;-70
2022/12/01 12:14:17;;;;;;;5.10;1.40;;;;;;;;;;4994012;28;20199;-69
2022/12/01 12:16:52;;;;;;;10.13;2.03;;;;;;;;;;4991549;28;20505;-68
2022/12/01 12:19:26;;;;;;;3.33;1.20;;;;;;;;;;4995571;28;20233;-70
2022/12/01 12:22:01;;;;;;;4.00;1.40;;;;;;;;;;4990850;28;20046;-69
2022/12/01 12:24:54;;;;;;;4.53;1.60;;;;;;;;;;4997333;28;20571;-68
2022/12/01 12:27:38;;;;;;;6.97;1.88;;;;;;;;;;4947846;28;20509;-69
2022/12/01 12:30:30;;;;;;;7.90;1.92;;;;;;;;;;4998060;28;20061;-68
2022/12/01 12:33:08;;;;;;;9.85;1.40;;;;;;;;;;4985255;28;20382;-72
2022/12/01 12:35:40;;;;;;;6.40;1.55;;;;;;;;;;4976290;28;20084;-70
2022/12/01 12:38:45;;;;;;;9.48;1.30;;;;;;;;;;4994533;28;20046;-67
2022/12/01 12:41:32;;;;;;;2.80;1.25;;;;;;;;;;4968646;28;20577;-70
2022/12/01 12:44:41;;;;;;;8.75;1.65;;;;;;;;;;4993283;28;20046;-69
2022/12/01 12:47:24;;;;;;;3.25;1.27;;;;;;;;;;4995556;28;20053;-68
2022/12/01 12:50:20;;;;;;;6.30;2.83;;;;;;;;;;4979149;28;20128;-69
2022/12/01 12:52:50;;;;;;;5.07;1.58;;;;;;;;;;4975924;28;20171;-68
2022/12/01 12:55:29;;;;;;;7.43;1.83;;;;;;;;;;4998478;28;20054;-70
2022/12/01 12:58:04;;;;;;;7.85;1.58;;;;;;;;;;4997908;28;20046;-70
2022/12/01 13:00:30;;;;;;;8.45;1.83;;;;;;;;;;4996657;28;20457;-69
2022/12/01 13:03:13;;;;;;;5.90;1.75;;;;;;;;;;4994306;28;20046;-69
2022/12/01 13:05:54;;;;;;;9.70;1.65;;;;;;;;;;4997249;28;20541;-69
2022/12/01 13:08:30;;;;;;;11.75;3.53;;;;;;;;;;4997570;28;20049;-69
2022/12/01 13:11:02;;;;;;;8.90;1.85;;;;;;;;;;4998659;28;21055;-69
2022/12/01 13:13:31;;;;;;;7.60;1.60;;;;;;;;;;4995816;28;20474;-71
2022/12/01 13:15:59;;;;;;;7.75;1.92;;;;;;;;;;4995223;28;20455;-71
2022/12/01 13:18:33;;;;;;;6.85;2.53;;;;;;;;;;4996540;28;20057;-70
2022/12/01 13:21:01;;;;;;;7.45;2.22;;;;;;;;;;4999395;28;20065;-69
2022/12/01 13:23:28;;;;;;;13.55;2.20;;;;;;;;;;4996492;28;20057;-70
2022/12/01 13:25:57;;;;;;;5.05;2.20;;;;;;;;;;4982852;28;20543;-67
2022/12/01 13:28:28;;;;;;;7.03;2.50;;;;;;;;;;5001328;28;20294;-68
2022/12/01 13:31:20;;;;;;;4.40;2.33;;;;;;;;;;5003338;28;20055;-70
2022/12/01 13:34:01;;;;;;;10.73;3.08;;;;;;;;;;5001107;28;20046;-69
2022/12/01 13:36:29;;;;;;;6.93;2.53;;;;;;;;;;5003005;28;20057;-70
2022/12/01 13:39:04;;;;;;;9.40;2.67;;;;;;;;;;4998352;28;20551;-72
2022/12/01 13:41:38;;;;;;;9.63;2.70;;;;;;;;;;4998527;28;20068;-74
2022/12/01 13:44:21;;;;;;;8.43;2.70;;;;;;;;;;5000200;28;20096;-68
2022/12/01 13:46:47;;;;;;;5.47;2.30;;;;;;;;;;5005221;28;20077;-69
2022/12/01 13:49:41;;;;;;;4.20;2.67;;;;;;;;;;5005592;28;20762;-67
2022/12/01 13:52:27;;;;;;;6.78;1.65;;;;;;;;;;5003539;28;20290;-67
2022/12/01 13:55:08;;;;;;;6.97;1.45;;;;;;;;;;4982555;28;20053;-68
2022/12/01 13:57:48;;;;;;;7.03;1.80;;;;;;;;;;5003748;28;20038;-70
2022/12/01 14:00:24;;;;;;;2.15;1.35;;;;;;;;;;5005062;28;20042;-70
2022/12/01 14:03:15;;;;;;;9.13;2.28;;;;;;;;;;5000614;28;20053;-65
2022/12/01 14:05:42;;;;;;;6.63;1.70;;;;;;;;;;5001524;28;20054;-68
2022/12/01 14:08:15;;;;;;;3.97;1.60;;;;;;;;;;5001790;28;20111;-67
2022/12/01 14:10:56;;;;;;;6.15;1.75;;;;;;;;;;5000490;28;20120;-68
2022/12/01 14:13:24;;;;;;;7.88;1.80;;;;;;;;;;4996620;28;20045;-69
2022/12/01 14:15:59;;;;;;;3.67;1.20;;;;;;;;;;5005527;28;20164;-67
2022/12/01 14:18:31;;;;;;;5.05;1.20;;;;;;;;;;5006068;28;20433;-69
2022/12/01 14:21:03;;;;;;;4.82;1.30;;;;;;;;;;5000705;28;20529;-70
2022/12/01 14:23:33;;;;;;;3.90;1.30;;;;;;;;;;5002853;28;20350;-68
2022/12/01 14:26:22;;;;;;;7.18;1.60;;;;;;;;;;4999022;28;20497;-68
2022/12/01 14:28:54;;;;;;;4.45;1.50;;;;;;;;;;5002480;28;20041;-68
2022/12/01 14:31:22;;;;;;;7.30;1.50;;;;;;;;;;5002718;28;20451;-68
2022/12/01 14:34:13;;;;;;;5.88;1.45;;;;;;;;;;4983630;28;20054;-68
2022/12/01 14:37:09;;;;;;;5.28;1.40;;;;;;;;;;4971290;28;20244;-68
2022/12/01 14:39:43;;;;;;;4.47;1.50;;;;;;;;;;4996539;28;20121;-69
2022/12/01 14:44:02;;;;;;;3.80;1.30;;;;;;;;;;5002411;28;20049;-71
2022/12/01 14:45:04;;;;;;;;;;;;;;;;;;4999872;28;20128;-70
2022/12/01 14:47:57;;;;;;;4.18;1.33;;;;;;;;;;4999605;28;19925;-68
2022/12/01 14:50:37;;;;;;;6.60;1.50;;;;;;;;;;5002294;28;20393;-67
2022/12/01 14:53:14;;;;;;;5.10;1.38;;;;;;;;;;4986456;28;20072;-74
2022/12/01 14:55:45;;;;;;;3.65;1.40;;;;;;;;;;4998878;28;20361;-68
2022/12/01 14:58:23;;;;;;;8.63;1.48;;;;;;;;;;4999636;28;20045;-70
2022/12/01 15:00:59;;;;;;;10.77;1.95;;;;;;;;;;5001703;28;20088;-67
2022/12/01 15:03:30;;;;;;;4.65;1.52;;;;;;;;;;5005667;28;20065;-69
2022/12/01 15:05:56;;;;;;;5.85;1.80;;;;;;;;;;5004706;28;20046;-70
2022/12/01 15:08:25;;;;;;;5.97;1.60;;;;;;;;;;5002290;28;20425;-69
2022/12/01 15:10:54;;;;;;;6.85;1.70;;;;;;;;;;4998003;28;20701;-70
2022/12/01 15:13:27;;;;;;;5.30;1.70;;;;;;;;;;4998172;28;20416;-67
2022/12/01 15:15:56;;;;;;;6.72;1.77;;;;;;;;;;4998328;28;20069;-68